createdAt,value
2018-03-08T00:00:42.958Z,990.13
2018-03-08T00:01:42.925Z,990.11
2018-03-08T00:02:42.886Z,990.13
2018-03-08T00:03:43.234Z,990.12
2018-03-08T00:04:42.934Z,990.11
2018-03-08T00:06:42.786Z,990.10
2018-03-08T00:07:42.764Z,990.12
2018-03-08T00:08:42.750Z,990.13
2018-03-08T00:10:43.058Z,990.15
2018-03-08T00:11:42.687Z,990.13
2018-03-08T00:12:42.666Z,990.15
2018-03-08T00:13:42.638Z,990.12
2018-03-08T00:14:42.615Z,990.17
2018-03-08T00:15:42.637Z,990.14
2018-03-08T00:18:43.010Z,990.17
2018-03-08T00:19:42.495Z,990.11
2018-03-08T00:20:42.465Z,990.13
2018-03-08T00:21:42.498Z,990.13
2018-03-08T00:23:42.405Z,990.13
2018-03-08T00:24:42.417Z,990.12
2018-03-08T00:25:42.644Z,990.13
2018-03-08T00:26:42.337Z,990.12
2018-03-08T00:27:42.352Z,990.13
2018-03-08T00:29:42.372Z,990.16
2018-03-08T00:30:42.315Z,990.15
2018-03-08T00:31:42.225Z,990.14
2018-03-08T00:32:42.545Z,990.15
2018-03-08T00:33:42.177Z,990.19
2018-03-08T00:34:42.150Z,990.17
2018-03-08T00:35:42.222Z,990.20
2018-03-08T00:36:42.086Z,990.20
2018-03-08T00:37:42.068Z,990.20
2018-03-08T00:38:42.052Z,990.15
2018-03-08T00:39:42.331Z,990.16
2018-03-08T00:40:42.166Z,990.17
2018-03-08T00:41:42.020Z,990.15
2018-03-08T00:43:41.966Z,990.16
2018-03-08T00:44:42.043Z,990.19
2018-03-08T00:45:41.889Z,990.24
2018-03-08T00:46:42.297Z,990.26
2018-03-08T00:47:41.841Z,990.25
2018-03-08T00:48:42.649Z,990.23
2018-03-08T00:49:41.803Z,990.22
2018-03-08T00:50:41.770Z,990.23
2018-03-08T00:53:42.076Z,990.28
2018-03-08T00:54:41.695Z,990.30
2018-03-08T00:55:41.653Z,990.26
2018-03-08T00:56:41.627Z,990.22
2018-03-08T00:57:41.693Z,990.21
2018-03-08T00:58:41.577Z,990.20
2018-03-08T01:00:42.010Z,990.22
2018-03-08T01:01:41.519Z,990.19
2018-03-08T01:03:41.476Z,990.23
2018-03-08T01:04:41.561Z,990.25
2018-03-08T01:05:41.436Z,990.23
2018-03-08T01:06:41.738Z,990.25
2018-03-08T01:07:41.397Z,990.24
2018-03-08T01:10:41.660Z,990.18
2018-03-08T01:11:41.439Z,990.16
2018-03-08T01:12:41.675Z,990.12
2018-03-08T01:13:41.333Z,990.14
2018-03-08T01:14:41.211Z,990.07
2018-03-08T01:15:41.179Z,990.05
2018-03-08T01:16:41.163Z,990.05
2018-03-08T01:17:41.141Z,990.06
2018-03-08T01:21:41.402Z,990.07
2018-03-08T01:22:41.030Z,990.07
2018-03-08T01:23:41.057Z,990.11
2018-03-08T01:24:41.035Z,990.11
2018-03-08T01:25:40.966Z,990.09
2018-03-08T01:28:41.183Z,990.04
2018-03-08T01:30:40.957Z,990.06
2018-03-08T01:32:40.804Z,990.07
2018-03-08T01:33:40.776Z,989.98
2018-03-08T01:34:41.056Z,990.00
2018-03-08T01:35:40.781Z,989.97
2018-03-08T01:36:40.897Z,990.00
2018-03-08T01:37:40.669Z,990.01
2018-03-08T01:38:40.807Z,990.07
2018-03-08T01:40:40.983Z,990.09
2018-03-08T01:41:40.676Z,990.11
2018-03-08T01:42:40.548Z,990.12
2018-03-08T01:43:40.525Z,990.11
2018-03-08T01:45:40.599Z,990.07
2018-03-08T01:46:40.697Z,990.12
2018-03-08T01:47:40.849Z,990.08
2018-03-08T01:48:40.408Z,990.10
2018-03-08T01:49:40.403Z,990.10
2018-03-08T01:50:40.368Z,990.08
2018-03-08T01:51:40.398Z,990.11
2018-03-08T01:52:40.339Z,990.08
2018-03-08T01:53:40.298Z,990.09
2018-03-08T01:54:40.580Z,990.07
2018-03-08T01:55:40.257Z,990.07
2018-03-08T01:56:40.283Z,990.03
2018-03-08T01:57:40.217Z,990.07
2018-03-08T01:58:40.195Z,990.05
2018-03-08T01:59:40.221Z,990.05
2018-03-08T02:00:40.139Z,990.06
2018-03-08T02:01:40.423Z,990.10
2018-03-08T02:02:40.140Z,990.11
2018-03-08T02:03:40.056Z,990.09
2018-03-08T02:04:40.036Z,990.12
2018-03-08T02:05:40.010Z,990.12
2018-03-08T02:06:40.147Z,990.13
2018-03-08T02:07:39.971Z,990.13
2018-03-08T02:08:40.297Z,990.08
2018-03-08T02:09:39.935Z,990.08
2018-03-08T02:10:39.892Z,990.10
2018-03-08T02:11:39.880Z,990.10
2018-03-08T02:12:39.983Z,990.11
2018-03-08T02:13:39.822Z,990.09
2018-03-08T02:14:39.808Z,990.11
2018-03-08T02:15:40.100Z,990.09
2018-03-08T02:16:39.773Z,990.10
2018-03-08T02:17:39.777Z,990.10
2018-03-08T02:20:39.674Z,990.07
2018-03-08T02:21:39.653Z,990.08
2018-03-08T02:22:39.929Z,990.07
2018-03-08T02:23:39.655Z,990.05
2018-03-08T02:24:39.577Z,990.09
2018-03-08T02:25:39.582Z,990.07
2018-03-08T02:26:39.534Z,990.09
2018-03-08T02:27:39.506Z,990.11
2018-03-08T02:28:39.843Z,990.10
2018-03-08T02:29:39.478Z,990.09
2018-03-08T02:30:39.449Z,990.11
2018-03-08T02:31:39.455Z,990.06
2018-03-08T02:32:39.397Z,990.08
2018-03-08T02:33:39.571Z,990.05
2018-03-08T02:34:39.655Z,990.04
2018-03-08T02:35:39.318Z,990.05
2018-03-08T02:36:39.327Z,990.04
2018-03-08T02:37:39.271Z,990.05
2018-03-08T02:38:39.302Z,990.09
2018-03-08T02:39:39.231Z,990.05
2018-03-08T02:40:39.496Z,990.12
2018-03-08T02:41:39.169Z,990.14
2018-03-08T02:42:39.143Z,990.10
2018-03-08T02:43:39.126Z,990.13
2018-03-08T02:44:39.149Z,990.11
2018-03-08T02:45:39.229Z,990.08
2018-03-08T02:46:39.362Z,990.07
2018-03-08T02:47:39.036Z,990.07
2018-03-08T02:48:39.005Z,990.12
2018-03-08T02:49:39.000Z,990.11
2018-03-08T02:50:39.914Z,990.06
2018-03-08T02:53:39.201Z,990.06
2018-03-08T02:54:38.928Z,990.05
2018-03-08T02:55:38.839Z,990.06
2018-03-08T02:56:38.869Z,990.09
2018-03-08T02:57:38.809Z,990.08
2018-03-08T02:58:38.789Z,990.10
2018-03-08T02:59:39.058Z,990.10
2018-03-08T03:00:38.792Z,990.10
2018-03-08T03:01:38.712Z,990.12
2018-03-08T03:02:38.687Z,990.09
2018-03-08T03:03:38.722Z,990.12
2018-03-08T03:04:38.699Z,990.13
2018-03-08T03:05:38.923Z,990.11
2018-03-08T03:06:38.581Z,990.11
2018-03-08T03:07:38.578Z,990.11
2018-03-08T03:08:38.544Z,990.11
2018-03-08T03:09:38.526Z,990.10
2018-03-08T03:10:38.543Z,990.09
2018-03-08T03:11:38.483Z,990.09
2018-03-08T03:12:38.747Z,990.07
2018-03-08T03:13:38.436Z,990.11
2018-03-08T03:14:38.412Z,990.12
2018-03-08T03:15:38.378Z,990.12
2018-03-08T03:16:38.396Z,990.08
2018-03-08T03:17:38.328Z,990.10
2018-03-08T03:18:38.306Z,990.08
2018-03-08T03:20:38.554Z,990.07
2018-03-08T03:21:38.452Z,990.12
2018-03-08T03:22:38.273Z,990.11
2018-03-08T03:23:38.192Z,990.06
2018-03-08T03:24:38.165Z,990.09
2018-03-08T03:25:38.135Z,990.12
2018-03-08T03:26:38.125Z,990.10
2018-03-08T03:27:38.457Z,990.13
2018-03-08T03:28:38.083Z,990.10
2018-03-08T03:30:38.030Z,990.14
2018-03-08T03:31:38.005Z,990.09
2018-03-08T03:32:38.028Z,990.10
2018-03-08T03:33:37.957Z,990.12
2018-03-08T03:34:38.231Z,990.13
2018-03-08T03:35:37.917Z,990.14
2018-03-08T03:36:37.887Z,990.17
2018-03-08T03:38:38.043Z,990.20
2018-03-08T03:40:38.110Z,990.25
2018-03-08T03:41:37.977Z,990.25
2018-03-08T03:42:38.025Z,990.27
2018-03-08T03:43:37.781Z,990.23
2018-03-08T03:44:37.753Z,990.23
2018-03-08T03:45:37.683Z,990.23
2018-03-08T03:46:37.695Z,990.27
2018-03-08T03:47:37.927Z,990.22
2018-03-08T03:49:37.582Z,990.26
2018-03-08T03:50:37.559Z,990.26
2018-03-08T03:51:37.541Z,990.22
2018-03-08T03:52:37.571Z,990.22
2018-03-08T03:53:37.799Z,990.28
2018-03-08T03:54:37.537Z,990.26
2018-03-08T03:55:37.463Z,990.30
2018-03-08T03:57:37.406Z,990.32
2018-03-08T03:58:37.437Z,990.36
2018-03-08T03:59:37.667Z,990.38
2018-03-08T04:00:37.344Z,990.36
2018-03-08T04:01:37.325Z,990.33
2018-03-08T04:02:37.295Z,990.33
2018-03-08T04:03:37.367Z,990.33
2018-03-08T04:04:37.343Z,990.38
2018-03-08T04:05:37.525Z,990.38
2018-03-08T04:06:37.202Z,990.35
2018-03-08T04:07:37.283Z,990.33
2018-03-08T04:08:37.151Z,990.34
2018-03-08T04:09:37.123Z,990.37
2018-03-08T04:10:37.153Z,990.37
2018-03-08T04:11:37.383Z,990.40
2018-03-08T04:12:37.059Z,990.35
2018-03-08T04:13:37.036Z,990.40
2018-03-08T04:14:37.011Z,990.40
2018-03-08T04:15:36.996Z,990.39
2018-03-08T04:16:37.072Z,990.38
2018-03-08T04:17:37.242Z,990.41
2018-03-08T04:18:36.919Z,990.40
2018-03-08T04:19:36.997Z,990.41
2018-03-08T04:23:37.159Z,990.41
2018-03-08T04:24:36.788Z,990.46
2018-03-08T04:25:36.759Z,990.44
2018-03-08T04:26:36.784Z,990.43
2018-03-08T04:27:36.714Z,990.46
2018-03-08T04:28:36.710Z,990.44
2018-03-08T04:30:36.945Z,990.47
2018-03-08T04:31:36.748Z,990.50
2018-03-08T04:32:36.613Z,990.51
2018-03-08T04:33:36.580Z,990.44
2018-03-08T04:34:36.551Z,990.49
2018-03-08T04:35:36.558Z,990.50
2018-03-08T04:38:36.807Z,990.52
2018-03-08T04:39:36.438Z,990.54
2018-03-08T04:40:36.406Z,990.53
2018-03-08T04:41:36.388Z,990.59
2018-03-08T04:42:36.372Z,990.55
2018-03-08T04:43:36.548Z,990.59
2018-03-08T04:44:36.323Z,990.57
2018-03-08T04:45:36.903Z,990.62
2018-03-08T04:46:36.271Z,990.59
2018-03-08T04:47:36.245Z,990.60
2018-03-08T04:48:38.073Z,990.61
2018-03-08T04:49:36.255Z,990.59
2018-03-08T04:50:36.181Z,990.61
2018-03-08T04:51:36.154Z,990.64
2018-03-08T04:52:36.443Z,990.62
2018-03-08T04:53:36.118Z,990.62
2018-03-08T04:54:36.114Z,990.63
2018-03-08T04:55:36.129Z,990.67
2018-03-08T04:56:36.059Z,990.66
2018-03-08T04:58:36.010Z,990.72
2018-03-08T04:59:36.382Z,990.67
2018-03-08T05:00:36.316Z,990.72
2018-03-08T05:01:35.944Z,990.72
2018-03-08T05:02:35.915Z,990.72
2018-03-08T05:03:35.892Z,990.75
2018-03-08T05:04:35.873Z,990.78
2018-03-08T05:05:35.842Z,990.77
2018-03-08T05:06:36.182Z,990.77
2018-03-08T05:07:35.808Z,990.81
2018-03-08T05:08:35.789Z,990.77
2018-03-08T05:09:35.754Z,990.79
2018-03-08T05:10:35.721Z,990.78
2018-03-08T05:11:35.703Z,990.79
2018-03-08T05:12:35.731Z,990.80
2018-03-08T05:13:35.963Z,990.80
2018-03-08T05:15:35.612Z,990.79
2018-03-08T05:16:35.593Z,990.79
2018-03-08T05:18:35.586Z,990.83
2018-03-08T05:20:36.267Z,990.83
2018-03-08T05:21:35.483Z,990.85
2018-03-08T05:22:35.465Z,990.85
2018-03-08T05:23:35.424Z,990.93
2018-03-08T05:24:35.408Z,990.90
2018-03-08T05:25:35.390Z,990.92
2018-03-08T05:26:35.716Z,990.89
2018-03-08T05:27:35.341Z,990.88
2018-03-08T05:28:35.333Z,991.02
2018-03-08T05:29:35.300Z,990.89
2018-03-08T05:30:35.278Z,990.89
2018-03-08T05:31:35.265Z,990.95
2018-03-08T05:32:35.579Z,990.99
2018-03-08T05:33:35.211Z,990.94
2018-03-08T05:34:35.181Z,990.97
2018-03-08T05:35:35.153Z,990.97
2018-03-08T05:36:35.127Z,990.98
2018-03-08T05:37:35.165Z,991.02
2018-03-08T05:38:35.384Z,991.04
2018-03-08T05:39:35.118Z,991.01
2018-03-08T05:40:35.046Z,991.03
2018-03-08T05:41:35.024Z,990.99
2018-03-08T05:42:35.009Z,991.00
2018-03-08T05:43:34.980Z,991.01
2018-03-08T05:44:35.309Z,991.05
2018-03-08T05:45:34.928Z,991.05
2018-03-08T05:46:34.910Z,991.06
2018-03-08T05:47:35.130Z,991.11
2018-03-08T05:48:35.225Z,991.10
2018-03-08T05:49:34.839Z,991.11
2018-03-08T05:50:35.169Z,991.07
2018-03-08T05:51:34.805Z,991.13
2018-03-08T05:52:34.768Z,991.17
2018-03-08T05:53:34.828Z,991.18
2018-03-08T05:54:34.739Z,991.17
2018-03-08T05:55:34.719Z,991.14
2018-03-08T05:56:34.886Z,991.25
2018-03-08T05:57:36.687Z,991.17
2018-03-08T05:58:35.015Z,991.18
2018-03-08T05:59:34.651Z,991.18
2018-03-08T06:00:35.341Z,991.27
2018-03-08T06:01:35.071Z,991.19
2018-03-08T06:03:34.846Z,991.29
2018-03-08T06:04:34.737Z,991.27
2018-03-08T06:05:34.550Z,991.35
2018-03-08T06:06:34.473Z,991.32
2018-03-08T06:07:34.459Z,991.33
2018-03-08T06:08:34.421Z,991.38
2018-03-08T06:09:34.452Z,991.43
2018-03-08T06:10:34.682Z,991.43
2018-03-08T06:11:34.340Z,991.45
2018-03-08T06:12:34.320Z,991.46
2018-03-08T06:13:34.325Z,991.44
2018-03-08T06:14:34.333Z,991.38
2018-03-08T06:15:34.261Z,991.49
2018-03-08T06:16:34.247Z,991.45
2018-03-08T06:17:34.526Z,991.51
2018-03-08T06:18:34.183Z,991.52
2018-03-08T06:19:34.293Z,991.46
2018-03-08T06:20:34.172Z,991.54
2018-03-08T06:21:34.126Z,991.50
2018-03-08T06:22:34.111Z,991.54
2018-03-08T06:23:34.102Z,991.51
2018-03-08T06:24:34.373Z,991.67
2018-03-08T06:25:34.091Z,991.65
2018-03-08T06:26:34.021Z,991.61
2018-03-08T06:27:34.006Z,991.58
2018-03-08T06:28:33.969Z,991.75
2018-03-08T06:29:33.962Z,991.68
2018-03-08T06:30:33.976Z,991.67
2018-03-08T06:31:34.217Z,991.68
2018-03-08T06:32:33.878Z,991.68
2018-03-08T06:33:33.858Z,991.70
2018-03-08T06:34:33.834Z,991.73
2018-03-08T06:35:34.000Z,991.86
2018-03-08T06:36:34.163Z,991.67
2018-03-08T06:37:33.761Z,991.76
2018-03-08T06:38:34.088Z,991.81
2018-03-08T06:39:33.724Z,991.88
2018-03-08T06:40:33.767Z,991.81
2018-03-08T06:41:33.685Z,991.86
2018-03-08T06:42:33.650Z,991.78
2018-03-08T06:43:33.623Z,991.89
2018-03-08T06:44:33.601Z,991.91
2018-03-08T06:45:33.579Z,991.86
2018-03-08T06:46:33.672Z,991.92
2018-03-08T06:47:33.540Z,991.90
2018-03-08T06:48:33.517Z,991.91
2018-03-08T06:49:33.502Z,991.93
2018-03-08T06:50:33.763Z,991.95
2018-03-08T06:51:33.443Z,991.95
2018-03-08T06:52:33.467Z,991.96
2018-03-08T06:53:33.406Z,991.92
2018-03-08T06:54:33.373Z,991.97
2018-03-08T06:55:33.369Z,992.04
2018-03-08T06:56:33.638Z,992.02
2018-03-08T06:57:33.364Z,991.92
2018-03-08T06:58:33.285Z,992.14
2018-03-08T06:59:33.270Z,992.07
2018-03-08T07:00:33.252Z,992.08
2018-03-08T07:01:33.237Z,992.14
2018-03-08T07:02:33.569Z,992.14
2018-03-08T07:03:33.191Z,992.26
2018-03-08T07:04:33.163Z,992.15
2018-03-08T07:05:33.136Z,992.18
2018-03-08T07:06:33.117Z,992.19
2018-03-08T07:07:33.094Z,992.22
2018-03-08T07:08:33.425Z,992.19
2018-03-08T07:09:33.049Z,992.32
2018-03-08T07:10:33.025Z,992.26
2018-03-08T07:11:33.112Z,992.28
2018-03-08T07:12:33.028Z,992.32
2018-03-08T07:13:33.500Z,992.47
2018-03-08T07:14:33.582Z,992.31
2018-03-08T07:15:33.126Z,992.36
2018-03-08T07:16:33.036Z,992.32
2018-03-08T07:17:33.012Z,992.35
2018-03-08T07:18:32.896Z,992.41
2018-03-08T07:19:32.873Z,992.38
2018-03-08T07:20:32.798Z,992.51
2018-03-08T07:22:32.746Z,992.42
2018-03-08T07:23:32.786Z,992.52
2018-03-08T07:24:32.882Z,992.46
2018-03-08T07:25:32.678Z,992.50
2018-03-08T07:26:32.708Z,992.53
2018-03-08T07:27:32.767Z,992.57
2018-03-08T07:28:32.911Z,992.57
2018-03-08T07:29:32.998Z,992.58
2018-03-08T07:30:32.857Z,992.62
2018-03-08T07:31:32.647Z,992.59
2018-03-08T07:32:32.567Z,992.65
2018-03-08T07:33:32.498Z,992.58
2018-03-08T07:34:32.490Z,992.68
2018-03-08T07:35:32.759Z,992.64
2018-03-08T07:36:32.422Z,992.69
2018-03-08T07:37:32.464Z,992.70
2018-03-08T07:38:32.399Z,992.70
2018-03-08T07:39:32.369Z,992.77
2018-03-08T07:40:32.346Z,992.62
2018-03-08T07:41:32.385Z,992.64
2018-03-08T07:42:32.605Z,992.72
2018-03-08T07:43:32.283Z,992.71
2018-03-08T07:44:32.260Z,992.80
2018-03-08T07:45:32.222Z,992.82
2018-03-08T07:46:32.197Z,992.82
2018-03-08T07:47:32.237Z,992.81
2018-03-08T07:48:32.169Z,992.83
2018-03-08T07:49:32.384Z,992.88
2018-03-08T07:50:32.125Z,992.88
2018-03-08T07:51:32.103Z,992.85
2018-03-08T07:52:32.145Z,992.92
2018-03-08T07:53:32.059Z,992.91
2018-03-08T07:54:32.084Z,992.96
2018-03-08T07:55:32.006Z,992.91
2018-03-08T07:56:32.286Z,992.89
2018-03-08T07:57:31.966Z,992.94
2018-03-08T07:58:32.019Z,992.95
2018-03-08T07:59:31.920Z,992.99
2018-03-08T08:00:31.954Z,992.96
2018-03-08T08:01:31.876Z,992.96
2018-03-08T08:02:31.895Z,992.99
2018-03-08T08:03:32.132Z,993.00
2018-03-08T08:04:31.815Z,993.06
2018-03-08T08:05:31.781Z,993.01
2018-03-08T08:06:31.813Z,993.09
2018-03-08T08:07:31.762Z,993.11
2018-03-08T08:08:31.717Z,993.15
2018-03-08T08:09:32.002Z,993.16
2018-03-08T08:10:31.716Z,993.10
2018-03-08T08:11:31.651Z,993.20
2018-03-08T08:12:31.669Z,993.18
2018-03-08T08:13:31.608Z,993.11
2018-03-08T08:14:31.583Z,993.18
2018-03-08T08:15:31.810Z,993.27
2018-03-08T08:16:31.540Z,993.21
2018-03-08T08:17:31.580Z,993.25
2018-03-08T08:18:31.508Z,993.22
2018-03-08T08:19:31.492Z,993.19
2018-03-08T08:20:31.464Z,993.26
2018-03-08T08:21:31.747Z,993.20
2018-03-08T08:22:31.473Z,993.23
2018-03-08T08:23:31.402Z,993.26
2018-03-08T08:24:31.382Z,993.25
2018-03-08T08:25:31.380Z,993.29
2018-03-08T08:26:31.327Z,993.23
2018-03-08T08:27:31.653Z,993.22
2018-03-08T08:28:31.284Z,993.30
2018-03-08T08:29:31.252Z,993.21
2018-03-08T08:30:31.230Z,993.27
2018-03-08T08:31:31.224Z,993.21
2018-03-08T08:32:33.853Z,993.30
2018-03-08T08:33:31.474Z,993.26
2018-03-08T08:34:31.163Z,993.26
2018-03-08T08:35:31.137Z,993.31
2018-03-08T08:36:31.120Z,993.32
2018-03-08T08:37:31.099Z,993.32
2018-03-08T08:38:31.173Z,993.32
2018-03-08T08:39:31.349Z,993.30
2018-03-08T08:40:31.150Z,993.35
2018-03-08T08:41:30.998Z,993.33
2018-03-08T08:42:30.970Z,993.33
2018-03-08T08:43:30.951Z,993.38
2018-03-08T08:44:30.931Z,993.43
2018-03-08T08:45:30.905Z,993.38
2018-03-08T08:46:31.243Z,993.40
2018-03-08T08:47:30.861Z,993.43
2018-03-08T08:48:30.854Z,993.43
2018-03-08T08:49:30.840Z,993.44
2018-03-08T08:50:30.793Z,993.43
2018-03-08T08:51:32.020Z,993.49
2018-03-08T08:52:31.119Z,993.51
2018-03-08T08:53:30.725Z,993.51
2018-03-08T08:54:30.731Z,993.50
2018-03-08T08:55:30.685Z,993.51
2018-03-08T08:56:30.689Z,993.43
2018-03-08T08:57:30.698Z,993.47
2018-03-08T08:58:30.629Z,993.50
2018-03-08T08:59:30.896Z,993.54
2018-03-08T09:00:30.583Z,993.56
2018-03-08T09:01:30.614Z,993.57
2018-03-08T09:02:30.557Z,993.53
2018-03-08T09:03:30.516Z,993.53
2018-03-08T09:04:30.505Z,993.55
2018-03-08T09:05:30.476Z,993.60
2018-03-08T09:06:30.770Z,993.57
2018-03-08T09:07:30.488Z,993.61
2018-03-08T09:08:30.458Z,993.54
2018-03-08T09:09:30.388Z,993.54
2018-03-08T09:10:30.365Z,993.61
2018-03-08T09:11:30.344Z,993.58
2018-03-08T09:12:30.625Z,993.60
2018-03-08T09:13:30.352Z,993.63
2018-03-08T09:14:30.285Z,993.71
2018-03-08T09:15:30.268Z,993.64
2018-03-08T09:16:30.238Z,993.59
2018-03-08T09:17:30.280Z,993.59
2018-03-08T09:18:30.216Z,993.73
2018-03-08T09:19:30.538Z,993.74
2018-03-08T09:20:30.170Z,993.72
2018-03-08T09:21:30.141Z,993.70
2018-03-08T09:22:30.146Z,993.70
2018-03-08T09:23:30.115Z,993.60
2018-03-08T09:24:30.083Z,993.58
2018-03-08T09:25:30.113Z,993.71
2018-03-08T09:26:30.173Z,993.66
2018-03-08T09:27:30.409Z,993.91
2018-03-08T09:28:30.445Z,993.90
2018-03-08T09:29:30.059Z,994.02
2018-03-08T09:30:29.968Z,993.91
2018-03-08T09:31:29.994Z,993.82
2018-03-08T09:32:29.972Z,993.85
2018-03-08T09:33:29.963Z,993.72
2018-03-08T09:34:29.881Z,993.92
2018-03-08T09:35:29.859Z,993.89
2018-03-08T09:36:29.833Z,993.89
2018-03-08T09:37:29.816Z,993.73
2018-03-08T09:38:30.140Z,993.80
2018-03-08T09:39:29.773Z,993.70
2018-03-08T09:40:29.750Z,993.70
2018-03-08T09:41:29.740Z,993.81
2018-03-08T09:42:29.725Z,993.82
2018-03-08T09:43:29.723Z,993.72
2018-03-08T09:44:29.723Z,993.78
2018-03-08T09:45:29.662Z,993.73
2018-03-08T09:46:29.646Z,993.73
2018-03-08T09:47:29.674Z,993.72
2018-03-08T09:48:29.609Z,993.69
2018-03-08T09:49:29.591Z,993.75
2018-03-08T09:50:29.878Z,993.96
2018-03-08T09:51:29.566Z,993.81
2018-03-08T09:52:29.636Z,993.88
2018-03-08T09:53:29.574Z,993.71
2018-03-08T09:54:29.488Z,993.79
2018-03-08T09:55:29.477Z,993.88
2018-03-08T09:56:29.458Z,993.96
2018-03-08T09:57:29.443Z,994.01
2018-03-08T09:58:29.469Z,993.98
2018-03-08T09:59:29.389Z,993.92
2018-03-08T10:00:29.385Z,993.78
2018-03-08T10:01:29.364Z,993.80
2018-03-08T10:03:29.625Z,993.87
2018-03-08T10:04:29.369Z,993.86
2018-03-08T10:05:29.281Z,993.88
2018-03-08T10:06:29.320Z,993.89
2018-03-08T10:07:29.253Z,993.87
2018-03-08T10:08:29.978Z,993.79
2018-03-08T10:09:29.536Z,993.84
2018-03-08T10:10:29.188Z,993.84
2018-03-08T10:11:29.189Z,993.77
2018-03-08T10:12:29.153Z,993.86
2018-03-08T10:13:29.138Z,993.88
2018-03-08T10:14:29.165Z,993.84
2018-03-08T10:15:29.104Z,993.81
2018-03-08T10:16:29.403Z,993.80
2018-03-08T10:17:29.059Z,993.90
2018-03-08T10:18:29.156Z,993.97
2018-03-08T10:19:29.055Z,993.84
2018-03-08T10:20:29.118Z,993.87
2018-03-08T10:21:44.453Z,993.77
2018-03-08T10:22:28.970Z,993.84
2018-03-08T10:23:29.253Z,993.73
2018-03-08T10:24:29.304Z,993.85
2018-03-08T10:25:28.928Z,993.83
2018-03-08T10:26:28.915Z,993.86
2018-03-08T10:27:28.896Z,993.88
2018-03-08T10:28:28.924Z,994.03
2018-03-08T10:29:28.872Z,993.96
2018-03-08T10:30:29.198Z,994.01
2018-03-08T10:31:28.952Z,993.99
2018-03-08T10:32:28.798Z,993.94
2018-03-08T10:33:28.825Z,993.96
2018-03-08T10:34:28.759Z,993.97
2018-03-08T10:35:28.796Z,993.92
2018-03-08T10:36:28.730Z,993.92
2018-03-08T10:37:28.950Z,993.98
2018-03-08T10:38:28.688Z,994.08
2018-03-08T10:39:28.713Z,994.05
2018-03-08T10:43:28.622Z,994.33
2018-03-08T10:44:28.874Z,994.01
2018-03-08T10:45:28.563Z,993.99
2018-03-08T10:46:28.548Z,994.01
2018-03-08T10:47:28.530Z,994.04
2018-03-08T10:48:28.572Z,993.99
2018-03-08T10:49:28.485Z,993.81
2018-03-08T10:50:28.677Z,993.99
2018-03-08T10:51:28.762Z,994.70
2018-03-08T10:52:28.441Z,994.68
2018-03-08T10:53:28.427Z,994.17
2018-03-08T10:54:28.502Z,994.70
2018-03-08T10:55:28.521Z,994.08
2018-03-08T10:56:28.366Z,994.15
2018-03-08T10:57:28.651Z,994.09
2018-03-08T10:58:28.320Z,994.12
2018-03-08T10:59:28.370Z,994.03
2018-03-08T11:00:28.393Z,994.67
2018-03-08T11:01:28.290Z,994.11
2018-03-08T11:02:28.263Z,994.71
2018-03-08T11:03:28.491Z,994.49
2018-03-08T11:04:28.228Z,994.79
2018-03-08T11:05:28.314Z,994.69
2018-03-08T11:06:28.245Z,994.49
2018-03-08T11:07:28.183Z,994.67
2018-03-08T11:08:28.197Z,994.55
2018-03-08T11:09:28.458Z,994.50
2018-03-08T11:10:28.137Z,994.28
2018-03-08T11:11:28.256Z,994.67
2018-03-08T11:12:28.349Z,994.56
2018-03-08T11:13:28.663Z,994.75
2018-03-08T11:14:28.199Z,994.15
2018-03-08T11:15:28.366Z,994.68
2018-03-08T11:16:28.481Z,994.61
2018-03-08T11:17:28.053Z,994.63
2018-03-08T11:18:28.094Z,994.63
2018-03-08T11:19:28.192Z,994.59
2018-03-08T11:20:28.089Z,994.59
2018-03-08T11:21:28.044Z,994.50
2018-03-08T11:22:28.289Z,994.51
2018-03-08T11:23:27.981Z,994.54
2018-03-08T11:24:27.966Z,994.58
2018-03-08T11:25:27.945Z,994.64
2018-03-08T11:26:27.987Z,994.73
2018-03-08T11:27:27.977Z,994.70
2018-03-08T11:28:28.219Z,994.64
2018-03-08T11:29:27.900Z,994.67
2018-03-08T11:30:27.887Z,994.80
2018-03-08T11:31:27.930Z,994.41
2018-03-08T11:32:27.916Z,994.53
2018-03-08T11:33:27.868Z,994.74
2018-03-08T11:34:28.096Z,994.51
2018-03-08T11:35:27.851Z,993.99
2018-03-08T11:36:27.837Z,994.61
2018-03-08T11:37:27.872Z,993.86
2018-03-08T11:38:27.807Z,993.94
2018-03-08T11:39:27.816Z,993.79
2018-03-08T11:40:27.840Z,993.82
2018-03-08T11:41:28.147Z,993.87
2018-03-08T11:42:27.817Z,994.04
2018-03-08T11:43:27.880Z,993.94
2018-03-08T11:44:27.740Z,994.47
2018-03-08T11:45:27.737Z,994.57
2018-03-08T11:46:29.470Z,994.59
2018-03-08T11:47:27.716Z,994.51
2018-03-08T11:48:28.007Z,994.44
2018-03-08T11:49:27.740Z,994.45
2018-03-08T11:50:27.684Z,994.50
2018-03-08T11:51:27.682Z,994.51
2018-03-08T11:52:27.668Z,994.44
2018-03-08T11:53:27.645Z,994.44
2018-03-08T11:54:27.928Z,994.28
2018-03-08T11:55:28.228Z,994.38
2018-03-08T11:56:27.625Z,994.33
2018-03-08T11:58:27.795Z,994.40
2018-03-08T11:59:27.582Z,993.93
2018-03-08T12:00:27.578Z,994.31
2018-03-08T12:01:28.130Z,994.34
2018-03-08T12:02:27.551Z,994.34
2018-03-08T12:03:27.541Z,994.40
2018-03-08T12:04:27.530Z,994.43
2018-03-08T12:05:27.524Z,994.37
2018-03-08T12:06:27.511Z,993.68
2018-03-08T12:07:27.844Z,994.37
2018-03-08T12:08:27.700Z,994.33
2018-03-08T12:09:27.713Z,994.30
2018-03-08T12:10:27.465Z,994.28
2018-03-08T12:11:27.825Z,994.27
2018-03-08T12:12:27.452Z,993.64
2018-03-08T12:13:27.444Z,994.28
2018-03-08T12:14:28.215Z,993.66
2018-03-08T12:15:27.426Z,994.12
2018-03-08T12:16:27.416Z,994.32
2018-03-08T12:18:27.780Z,994.25
2018-03-08T12:20:27.696Z,994.06
2018-03-08T12:21:27.344Z,994.30
2018-03-08T12:22:27.333Z,994.33
2018-03-08T12:23:27.330Z,994.20
2018-03-08T12:24:27.363Z,993.66
2018-03-08T12:25:27.363Z,994.18
2018-03-08T12:26:27.301Z,993.54
2018-03-08T12:27:27.591Z,993.49
2018-03-08T12:28:27.281Z,993.39
2018-03-08T12:29:27.272Z,993.45
2018-03-08T12:30:27.316Z,993.88
2018-03-08T12:31:27.244Z,994.13
2018-03-08T12:32:27.482Z,993.28
2018-03-08T12:33:27.544Z,994.17
2018-03-08T12:34:27.239Z,994.24
2018-03-08T12:35:27.207Z,993.43
2018-03-08T12:36:27.245Z,993.39
2018-03-08T12:37:27.241Z,993.41
2018-03-08T12:38:27.236Z,993.38
2018-03-08T12:40:27.462Z,993.90
2018-03-08T12:42:27.155Z,993.34
2018-03-08T12:43:27.127Z,993.32
2018-03-08T12:44:27.159Z,993.38
2018-03-08T12:45:27.108Z,994.10
2018-03-08T12:46:27.387Z,994.13
2018-03-08T12:48:27.081Z,994.13
2018-03-08T12:49:27.073Z,993.53
2018-03-08T12:50:27.155Z,993.45
2018-03-08T12:51:27.150Z,993.98
2018-03-08T12:52:27.047Z,994.11
2018-03-08T12:53:27.018Z,993.62
2018-03-08T12:54:26.989Z,994.11
2018-03-08T12:55:27.031Z,994.19
2018-03-08T12:56:26.980Z,994.11
2018-03-08T12:57:27.577Z,993.71
2018-03-08T12:58:27.197Z,993.60
2018-03-08T12:59:26.949Z,993.62
2018-03-08T13:01:26.917Z,993.44
2018-03-08T13:02:26.913Z,993.57
2018-03-08T13:03:26.965Z,993.61
2018-03-08T13:04:27.199Z,993.86
2018-03-08T13:05:26.895Z,993.42
2018-03-08T13:06:26.884Z,993.51
2018-03-08T13:07:26.863Z,993.70
2018-03-08T13:08:26.860Z,993.41
2018-03-08T13:09:26.898Z,993.34
2018-03-08T13:10:27.071Z,993.23
2018-03-08T13:11:26.821Z,993.64
2018-03-08T13:12:26.815Z,993.73
2018-03-08T13:14:26.803Z,993.75
2018-03-08T13:15:26.823Z,993.69
2018-03-08T13:16:26.766Z,992.98
2018-03-08T13:17:27.006Z,993.41
2018-03-08T13:18:26.751Z,993.00
2018-03-08T13:19:26.739Z,992.93
2018-03-08T13:21:26.734Z,993.44
2018-03-08T13:22:26.711Z,992.92
2018-03-08T13:23:26.703Z,992.89
2018-03-08T13:24:26.989Z,992.81
2018-03-08T13:25:26.734Z,992.84